AirNav   Air Wisconsin Up To $57,000 Bonus
 
 470 users online  

1VA3 Tye River Airport
Lovingston, Virginia, USA

GOING TO LOVINGSTON?


FAA INFORMATION EFFECTIVE 31 DECEMBER 2020

Location

FAA Identifier: 1VA3
Lat/Long: 37-39-29.5100N 078-56-44.0800W
37-39.491833N 078-56.734667W
37.6581972,-78.9455778
(estimated)
Elevation: 650 ft. / 198 m (estimated)
Variation: 07W (1985)
From city: 7 miles SW of LOVINGSTON, VA
Time zone: UTC -5 (UTC -4 during Daylight Saving Time)
Zip code: 22922

Airport Operations

Airport use: Private use. Permission required prior to landing
Activation date: 05/1991
Control tower: no
ARTCC: WASHINGTON CENTER
FSS: LEESBURG FLIGHT SERVICE STATION
Attendance: UNATNDD
Segmented circle: no

Nearby radio navigation aids

VOR radial/distance  VOR name  Freq  Var
MOLr157/16.4MONTEBELLO VOR/DME115.3005W
LYHr035/27.9LYNCHBURG VOR/DME109.2005W

 
NDB name  Hdg/Dist  Freq  Var  ID
FARMVILLE316/30.336709WFVX ..-. ...- -..-

Airport Services

Runway Information

Runway 4/22

Dimensions: 1750 x 100 ft. / 533 x 30 m
Surface: turf
RUNWAY 4  RUNWAY 22
Traffic pattern: leftleft

Airport Ownership and Management from official FAA records

Ownership: Privately-owned
Owner: CAROL WALSH
485 TYE RIVER RD
ARRINGTON, VA 22922
Phone 434-263-5229
CELL: 434-941-9163
Manager: CAROL WALSH
485 TYE RIVER RD
ARRINGTON, VA 22922
Phone 434-263-5229

Airport Operational Statistics

Aircraft based on the field: 2
Single engine airplanes: 2
    

Additional Remarks

FOR CD CTC ROANOKE APCH AT 540-563-1307.

Instrument Procedures

There are no published instrument procedures at 1VA3.

Some nearby airports with instrument procedures:

W24 - Falwell Airport (19 nm SW)
KLYH - Lynchburg Regional Airport/Preston Glenn Field (23 nm SW)
W13 - Eagle's Nest Airport (25 nm N)
W90 - New London Airport (30 nm SW)
KFVX - Farmville Regional Airport (30 nm SE)
 
Loc | Ops | Rwys | IFR | FBO | Links
Com | Nav | Svcs | Stats | Notes
Area around 1VA3 (Tye River Airport)
 
Road maps at: MapQuest Bing Google
 
Aerial photo
No photo
 
Sectional chart

 
Airport distance calculator
Flying to Tye River Airport? Find the distance to fly.

From to 1VA3

Sunrise and sunset
Times for 27-Jan-2021
 Local
(UTC-5)
 Zulu
(UTC)
Morning civil twilight06:5711:57
Sunrise07:2512:25
Sunset17:3322:33
Evening civil twilight18:0123:01

Current date and time
Zulu (UTC)  27-Jan-2021 06:57:12
Local (UTC-5)  27-Jan-2021 01:57:12
 
METAR
KLYH 
24nm SW 
270654Z 19004KT 1/4SM R04/1200V1400FT FG VV001 03/03 A2993 RMK AO2 SLP138 T00330028
KW13 
25nm N 
270655Z AUTO 20003KT 10SM BKN048 05/03 A2990 RMK AO1 T00510028
K0V4 
31nm S 
270655Z AUTO 00000KT 1/4SM OVC002 05/05 A2993 RMK AO1 T00510050
KFVX 
31nm SE 
270655Z AUTO 00000KT 1 3/4SM BR OVC003 05/04 A2993 RMK AO2 T00450043
KSHD 
37nm N 
270655Z AUTO 02003KT 3SM BR CLR M02/M02 A2992 RMK AO2 T10161016
KCHO 
37nm NE 
270653Z AUTO 23004KT 1/4SM FG VV001 03/02 A2991 RMK AO2 SLP128 T00330022
KVBW 
43nm N 
270655Z AUTO 00000KT 1/4SM OVC002 00/00 A2989 RMK AO1 T10011001
KHSP 
45nm NW 
270635Z AUTO 27018G25KT 10SM BKN013 OVC019 04/01 A2987 RMK AO2 T00370010
KGVE 
47nm NE 
270635Z AUTO 00000KT 1/2SM FG OVC003 04/04 A2991 RMK AO1 T00350035
TAF
KLYH 
24nm SW 
270541Z 2706/2806 23004KT 1/4SM FG VV001 FM271100 27004KT 2SM BR OVC004 FM271400 29006KT P6SM BKN018 FM271600 35005KT P6SM BKN070 FM272000 04005KT P6SM OVC050 FM280200 03010KT 6SM -RASN OVC025
NOTAMs
Click for the latest NOTAMs
NOTAMs are issued by the DoD/FAA and will open in a separate window not controlled by AirNav.

 

 
 

Would you like to see your business listed on this page?

 If your business provides an interesting product or service to pilots, flight crews, aircraft, or users of the Tye River Airport, you should consider listing it here.  To start the listing process, click on the button below
 
Add a business
 

Other Pages about Tye River Airport

Update a link
 
Copyright © AirNav, LLC. All rights reserved. Privacy Policy  Contact